sensor_id;sensor_type;location;lat;lon;timestamp;pressure;altitude;pressure_sealevel;temperature;humidity
9335;BME280;4706;41.844;26.082;2023-02-11T00:00:04;102815.00;;;1.70;50.84
9335;BME280;4706;41.844;26.082;2023-02-11T00:02:31;102810.19;;;1.72;50.98
9335;BME280;4706;41.844;26.082;2023-02-11T00:04:57;102818.19;;;1.74;50.90
9335;BME280;4706;41.844;26.082;2023-02-11T00:07:23;102818.53;;;1.70;50.89
9335;BME280;4706;41.844;26.082;2023-02-11T00:09:49;102812.91;;;1.72;50.95
9335;BME280;4706;41.844;26.082;2023-02-11T00:12:15;102814.78;;;1.72;50.87
9335;BME280;4706;41.844;26.082;2023-02-11T00:14:43;102817.13;;;1.75;51.11
9335;BME280;4706;41.844;26.082;2023-02-11T00:17:09;102819.00;;;1.74;51.10
9335;BME280;4706;41.844;26.082;2023-02-11T00:19:34;102821.06;;;1.72;50.69
9335;BME280;4706;41.844;26.082;2023-02-11T00:22:00;102815.47;;;1.74;50.63
9335;BME280;4706;41.844;26.082;2023-02-11T00:24:26;102813.84;;;1.79;50.94
9335;BME280;4706;41.844;26.082;2023-02-11T00:26:51;102817.34;;;1.73;50.44
9335;BME280;4706;41.844;26.082;2023-02-11T00:29:17;102818.16;;;1.59;50.78
9335;BME280;4706;41.844;26.082;2023-02-11T00:31:42;102802.81;;;1.51;51.15
9335;BME280;4706;41.844;26.082;2023-02-11T00:34:08;102809.72;;;1.54;50.69
9335;BME280;4706;41.844;26.082;2023-02-11T00:36:33;102823.84;;;1.49;50.65
9335;BME280;4706;41.844;26.082;2023-02-11T00:38:59;102813.75;;;1.43;50.91
9335;BME280;4706;41.844;26.082;2023-02-11T00:41:25;102811.59;;;1.53;51.22
9335;BME280;4706;41.844;26.082;2023-02-11T00:43:50;102820.88;;;1.59;50.79
9335;BME280;4706;41.844;26.082;2023-02-11T00:46:16;102822.81;;;1.50;51.10
9335;BME280;4706;41.844;26.082;2023-02-11T00:48:42;102818.16;;;1.44;51.37
9335;BME280;4706;41.844;26.082;2023-02-11T00:51:08;102809.06;;;1.37;50.83
9335;BME280;4706;41.844;26.082;2023-02-11T00:53:34;102803.16;;;1.33;51.11
9335;BME280;4706;41.844;26.082;2023-02-11T00:56:01;102813.81;;;1.35;50.80
9335;BME280;4706;41.844;26.082;2023-02-11T00:58:27;102807.19;;;1.37;50.89
9335;BME280;4706;41.844;26.082;2023-02-11T01:00:53;102799.06;;;1.37;50.76
9335;BME280;4706;41.844;26.082;2023-02-11T01:03:19;102796.72;;;1.34;50.43
9335;BME280;4706;41.844;26.082;2023-02-11T01:05:45;102802.97;;;1.35;50.83
9335;BME280;4706;41.844;26.082;2023-02-11T01:08:11;102813.28;;;1.39;50.72
9335;BME280;4706;41.844;26.082;2023-02-11T01:10:36;102803.81;;;1.35;50.36
9335;BME280;4706;41.844;26.082;2023-02-11T01:13:02;102806.72;;;1.34;50.70
9335;BME280;4706;41.844;26.082;2023-02-11T01:15:28;102807.75;;;1.33;50.52
9335;BME280;4706;41.844;26.082;2023-02-11T01:17:54;102788.53;;;1.19;51.06
9335;BME280;4706;41.844;26.082;2023-02-11T01:20:22;102808.94;;;1.30;50.88
9335;BME280;4706;41.844;26.082;2023-02-11T01:22:48;102799.88;;;1.23;50.68
9335;BME280;4706;41.844;26.082;2023-02-11T01:25:14;102809.22;;;1.20;51.29
9335;BME280;4706;41.844;26.082;2023-02-11T01:27:39;102809.09;;;1.14;51.19
9335;BME280;4706;41.844;26.082;2023-02-11T01:30:07;102806.97;;;1.09;51.44
9335;BME280;4706;41.844;26.082;2023-02-11T01:32:33;102809.84;;;1.08;51.93
9335;BME280;4706;41.844;26.082;2023-02-11T01:34:59;102800.09;;;0.99;52.09
9335;BME280;4706;41.844;26.082;2023-02-11T01:37:24;102798.38;;;0.97;52.29
9335;BME280;4706;41.844;26.082;2023-02-11T01:39:50;102797.75;;;0.95;52.00
9335;BME280;4706;41.844;26.082;2023-02-11T01:42:18;102802.81;;;0.99;52.42
9335;BME280;4706;41.844;26.082;2023-02-11T01:44:44;102788.09;;;0.93;51.78
9335;BME280;4706;41.844;26.082;2023-02-11T01:47:10;102789.78;;;0.94;51.89
9335;BME280;4706;41.844;26.082;2023-02-11T01:49:43;102797.81;;;0.87;51.92
9335;BME280;4706;41.844;26.082;2023-02-11T01:52:26;102793.59;;;0.85;51.90
9335;BME280;4706;41.844;26.082;2023-02-11T01:54:59;102795.63;;;0.83;51.40
9335;BME280;4706;41.844;26.082;2023-02-11T01:57:48;102788.41;;;0.75;52.10
9335;BME280;4706;41.844;26.082;2023-02-11T02:00:26;102790.59;;;0.80;52.29
9335;BME280;4706;41.844;26.082;2023-02-11T02:03:14;102795.53;;;0.76;51.69
9335;BME280;4706;41.844;26.082;2023-02-11T02:10:48;102792.16;;;0.74;51.68
9335;BME280;4706;41.844;26.082;2023-02-11T02:13:18;102792.00;;;0.76;52.06
9335;BME280;4706;41.844;26.082;2023-02-11T02:15:52;102791.66;;;0.70;52.15
9335;BME280;4706;41.844;26.082;2023-02-11T02:18:35;102794.22;;;0.72;52.22
9335;BME280;4706;41.844;26.082;2023-02-11T02:38:20;102785.19;;;0.57;51.63
9335;BME280;4706;41.844;26.082;2023-02-11T02:40:51;102780.59;;;0.57;51.86
9335;BME280;4706;41.844;26.082;2023-02-11T02:43:20;102778.13;;;0.47;52.04
9335;BME280;4706;41.844;26.082;2023-02-11T02:45:46;102789.63;;;0.50;51.86
9335;BME280;4706;41.844;26.082;2023-02-11T02:48:32;102787.91;;;0.48;51.40
9335;BME280;4706;41.844;26.082;2023-02-11T03:10:30;102788.53;;;0.36;51.78
9335;BME280;4706;41.844;26.082;2023-02-11T03:12:57;102789.84;;;0.40;51.94
9335;BME280;4706;41.844;26.082;2023-02-11T03:15:26;102786.00;;;0.34;52.01
9335;BME280;4706;41.844;26.082;2023-02-11T03:17:55;102792.81;;;0.30;51.54
9335;BME280;4706;41.844;26.082;2023-02-11T03:20:23;102801.75;;;0.31;51.75
9335;BME280;4706;41.844;26.082;2023-02-11T03:25:21;102787.41;;;0.22;51.36
9335;BME280;4706;41.844;26.082;2023-02-11T03:28:13;102794.53;;;0.23;51.87
9335;BME280;4706;41.844;26.082;2023-02-11T03:30:53;102791.09;;;0.29;52.07
9335;BME280;4706;41.844;26.082;2023-02-11T03:33:29;102786.56;;;0.21;51.62
9335;BME280;4706;41.844;26.082;2023-02-11T03:36:03;102799.94;;;0.23;51.79
9335;BME280;4706;41.844;26.082;2023-02-11T03:38:37;102782.13;;;0.29;51.65
9335;BME280;4706;41.844;26.082;2023-02-11T03:41:07;102783.66;;;0.31;52.04
9335;BME280;4706;41.844;26.082;2023-02-11T03:43:39;102793.66;;;0.22;51.92
9335;BME280;4706;41.844;26.082;2023-02-11T03:46:07;102786.44;;;0.15;51.79
9335;BME280;4706;41.844;26.082;2023-02-11T03:48:37;102772.09;;;0.06;51.91
9335;BME280;4706;41.844;26.082;2023-02-11T03:51:06;102777.50;;;0.06;51.67
9335;BME280;4706;41.844;26.082;2023-02-11T03:53:33;102786.47;;;0.07;51.95
9335;BME280;4706;41.844;26.082;2023-02-11T03:56:02;102776.50;;;0.07;51.98
9335;BME280;4706;41.844;26.082;2023-02-11T03:58:29;102770.28;;;-0.02;51.81
9335;BME280;4706;41.844;26.082;2023-02-11T04:00:55;102781.25;;;0.05;52.07
9335;BME280;4706;41.844;26.082;2023-02-11T04:03:20;102774.66;;;-0.01;52.27
9335;BME280;4706;41.844;26.082;2023-02-11T04:05:46;102779.44;;;-0.03;51.66
9335;BME280;4706;41.844;26.082;2023-02-11T04:08:11;102788.34;;;0.06;51.91
9335;BME280;4706;41.844;26.082;2023-02-11T04:10:37;102784.00;;;-0.03;52.10
9335;BME280;4706;41.844;26.082;2023-02-11T04:13:02;102779.44;;;-0.03;52.13
9335;BME280;4706;41.844;26.082;2023-02-11T04:15:28;102776.91;;;-0.12;52.35
9335;BME280;4706;41.844;26.082;2023-02-11T04:17:53;102776.28;;;-0.14;52.02
9335;BME280;4706;41.844;26.082;2023-02-11T04:20:19;102772.22;;;-0.18;52.12
9335;BME280;4706;41.844;26.082;2023-02-11T04:22:45;102769.16;;;-0.15;52.64
9335;BME280;4706;41.844;26.082;2023-02-11T04:25:10;102772.72;;;-0.15;51.84
9335;BME280;4706;41.844;26.082;2023-02-11T04:27:36;102773.22;;;-0.11;52.28
9335;BME280;4706;41.844;26.082;2023-02-11T04:30:05;102783.34;;;-0.13;52.01
9335;BME280;4706;41.844;26.082;2023-02-11T04:32:31;102786.94;;;-0.21;51.59
9335;BME280;4706;41.844;26.082;2023-02-11T04:34:57;102783.25;;;-0.28;51.74
9335;BME280;4706;41.844;26.082;2023-02-11T04:37:22;102780.88;;;-0.31;51.72
9335;BME280;4706;41.844;26.082;2023-02-11T04:39:48;102775.16;;;-0.36;52.07
9335;BME280;4706;41.844;26.082;2023-02-11T04:42:13;102782.75;;;-0.32;51.94
9335;BME280;4706;41.844;26.082;2023-02-11T04:44:38;102782.59;;;-0.38;51.87
9335;BME280;4706;41.844;26.082;2023-02-11T04:47:04;102781.44;;;-0.44;52.65
9335;BME280;4706;41.844;26.082;2023-02-11T04:49:29;102776.38;;;-0.47;52.62
9335;BME280;4706;41.844;26.082;2023-02-11T04:51:55;102770.63;;;-0.44;53.12
9335;BME280;4706;41.844;26.082;2023-02-11T04:54:20;102783.47;;;-0.46;52.87
9335;BME280;4706;41.844;26.082;2023-02-11T04:56:47;102778.56;;;-0.42;52.77
9335;BME280;4706;41.844;26.082;2023-02-11T04:59:14;102781.09;;;-0.41;53.22
9335;BME280;4706;41.844;26.082;2023-02-11T05:01:40;102765.91;;;-0.50;52.49
9335;BME280;4706;41.844;26.082;2023-02-11T05:04:05;102780.06;;;-0.40;52.75
9335;BME280;4706;41.844;26.082;2023-02-11T05:06:31;102782.28;;;-0.43;52.26
9335;BME280;4706;41.844;26.082;2023-02-11T05:08:57;102779.06;;;-0.47;52.46
9335;BME280;4706;41.844;26.082;2023-02-11T05:11:24;102773.84;;;-0.48;52.59
9335;BME280;4706;41.844;26.082;2023-02-11T05:13:51;102782.97;;;-0.50;52.12
9335;BME280;4706;41.844;26.082;2023-02-11T05:16:17;102787.75;;;-0.60;52.67
9335;BME280;4706;41.844;26.082;2023-02-11T05:18:43;102772.88;;;-0.64;52.35
9335;BME280;4706;41.844;26.082;2023-02-11T05:21:18;102791.28;;;-0.59;51.99
9335;BME280;4706;41.844;26.082;2023-02-11T05:23:44;102783.50;;;-0.62;52.69
9335;BME280;4706;41.844;26.082;2023-02-11T05:26:10;102789.94;;;-0.63;52.72
9335;BME280;4706;41.844;26.082;2023-02-11T05:28:36;102784.38;;;-0.70;53.07
9335;BME280;4706;41.844;26.082;2023-02-11T05:31:02;102788.25;;;-0.56;52.77
9335;BME280;4706;41.844;26.082;2023-02-11T05:33:28;102764.94;;;-0.74;52.54
9335;BME280;4706;41.844;26.082;2023-02-11T05:36:01;102789.75;;;-0.62;53.03
9335;BME280;4706;41.844;26.082;2023-02-11T05:38:27;102788.22;;;-0.64;53.61
9335;BME280;4706;41.844;26.082;2023-02-11T05:40:53;102788.25;;;-0.56;53.21
9335;BME280;4706;41.844;26.082;2023-02-11T05:43:18;102790.06;;;-0.57;53.17
9335;BME280;4706;41.844;26.082;2023-02-11T05:45:44;102798.34;;;-0.50;52.89
9335;BME280;4706;41.844;26.082;2023-02-11T05:48:09;102784.47;;;-0.47;53.69
9335;BME280;4706;41.844;26.082;2023-02-11T05:50:35;102794.25;;;-0.38;53.36
9335;BME280;4706;41.844;26.082;2023-02-11T05:53:00;102789.50;;;-0.28;53.10
9335;BME280;4706;41.844;26.082;2023-02-11T05:55:25;102791.50;;;-0.21;53.09
9335;BME280;4706;41.844;26.082;2023-02-11T05:57:51;102796.53;;;-0.10;53.45
9335;BME280;4706;41.844;26.082;2023-02-11T06:00:17;102789.91;;;-0.08;52.88
9335;BME280;4706;41.844;26.082;2023-02-11T06:02:42;102800.34;;;0.12;52.85
9335;BME280;4706;41.844;26.082;2023-02-11T06:05:08;102794.88;;;0.20;52.30
9335;BME280;4706;41.844;26.082;2023-02-11T06:07:33;102797.34;;;0.30;51.94
9335;BME280;4706;41.844;26.082;2023-02-11T06:09:59;102783.31;;;0.34;51.82
9335;BME280;4706;41.844;26.082;2023-02-11T06:12:25;102794.00;;;0.51;51.61
9335;BME280;4706;41.844;26.082;2023-02-11T06:14:51;102796.31;;;0.62;51.83
9335;BME280;4706;41.844;26.082;2023-02-11T06:17:17;102784.56;;;0.69;51.82
9335;BME280;4706;41.844;26.082;2023-02-11T06:19:42;102794.16;;;0.80;51.14
9335;BME280;4706;41.844;26.082;2023-02-11T06:22:08;102781.63;;;0.79;51.33
9335;BME280;4706;41.844;26.082;2023-02-11T06:24:34;102778.72;;;0.81;51.61
9335;BME280;4706;41.844;26.082;2023-02-11T06:27:02;102774.50;;;0.78;51.67
9335;BME280;4706;41.844;26.082;2023-02-11T06:29:28;102767.66;;;0.90;51.76
9335;BME280;4706;41.844;26.082;2023-02-11T06:31:54;102770.09;;;1.00;51.28
9335;BME280;4706;41.844;26.082;2023-02-11T06:34:19;102774.50;;;1.16;50.92
9335;BME280;4706;41.844;26.082;2023-02-11T06:36:44;102775.44;;;1.08;50.98
9335;BME280;4706;41.844;26.082;2023-02-11T06:39:11;102783.97;;;1.20;51.52
9335;BME280;4706;41.844;26.082;2023-02-11T06:41:37;102776.03;;;1.33;51.35
9335;BME280;4706;41.844;26.082;2023-02-11T06:44:03;102779.53;;;1.57;51.09
9335;BME280;4706;41.844;26.082;2023-02-11T06:46:29;102780.81;;;1.76;51.24
9335;BME280;4706;41.844;26.082;2023-02-11T06:48:55;102776.31;;;1.98;51.13
9335;BME280;4706;41.844;26.082;2023-02-11T06:51:20;102767.47;;;2.10;50.68
9335;BME280;4706;41.844;26.082;2023-02-11T06:53:46;102744.31;;;2.29;49.55
9335;BME280;4706;41.844;26.082;2023-02-11T06:56:14;102758.88;;;2.43;50.35
9335;BME280;4706;41.844;26.082;2023-02-11T06:58:40;102768.28;;;2.62;50.16
9335;BME280;4706;41.844;26.082;2023-02-11T07:01:08;102757.53;;;2.75;49.68
9335;BME280;4706;41.844;26.082;2023-02-11T07:03:35;102758.78;;;3.01;49.64
9335;BME280;4706;41.844;26.082;2023-02-11T07:06:05;102757.09;;;3.21;49.37
9335;BME280;4706;41.844;26.082;2023-02-11T07:08:35;102758.31;;;3.47;49.19
9335;BME280;4706;41.844;26.082;2023-02-11T07:11:17;102761.56;;;3.70;48.22
9335;BME280;4706;41.844;26.082;2023-02-11T07:13:44;102760.63;;;3.91;47.26
9335;BME280;4706;41.844;26.082;2023-02-11T07:16:12;102757.75;;;4.06;46.98
9335;BME280;4706;41.844;26.082;2023-02-11T07:18:38;102754.47;;;4.24;46.91
9335;BME280;4706;41.844;26.082;2023-02-11T07:21:05;102740.66;;;4.38;46.06
9335;BME280;4706;41.844;26.082;2023-02-11T07:23:31;102743.66;;;4.57;45.86
9335;BME280;4706;41.844;26.082;2023-02-11T07:25:57;102751.84;;;4.77;45.67
9335;BME280;4706;41.844;26.082;2023-02-11T07:28:22;102751.44;;;4.93;45.05
9335;BME280;4706;41.844;26.082;2023-02-11T07:30:48;102737.78;;;5.13;44.94
9335;BME280;4706;41.844;26.082;2023-02-11T07:33:14;102746.53;;;5.48;43.67
9335;BME280;4706;41.844;26.082;2023-02-11T07:35:39;102745.69;;;5.61;43.27
9335;BME280;4706;41.844;26.082;2023-02-11T07:38:05;102748.34;;;5.88;42.43
9335;BME280;4706;41.844;26.082;2023-02-11T07:40:30;102747.63;;;6.05;42.51
9335;BME280;4706;41.844;26.082;2023-02-11T07:42:56;102745.69;;;6.19;42.37
9335;BME280;4706;41.844;26.082;2023-02-11T07:45:21;102750.06;;;6.27;42.24
9335;BME280;4706;41.844;26.082;2023-02-11T07:47:49;102744.31;;;6.42;42.22
9335;BME280;4706;41.844;26.082;2023-02-11T07:50:15;102725.94;;;6.55;41.99
9335;BME280;4706;41.844;26.082;2023-02-11T07:52:41;102717.38;;;6.95;39.85
9335;BME280;4706;41.844;26.082;2023-02-11T07:55:07;102723.06;;;7.00;39.77
9335;BME280;4706;41.844;26.082;2023-02-11T07:57:33;102723.59;;;7.09;40.34
9335;BME280;4706;41.844;26.082;2023-02-11T07:59:59;102717.47;;;7.32;39.69
9335;BME280;4706;41.844;26.082;2023-02-11T08:02:24;102701.88;;;7.33;39.58
9335;BME280;4706;41.844;26.082;2023-02-11T08:04:49;102710.50;;;7.54;39.20
9335;BME280;4706;41.844;26.082;2023-02-11T08:07:16;102712.84;;;7.69;38.92
9335;BME280;4706;41.844;26.082;2023-02-11T08:09:42;102709.09;;;7.82;37.61
9335;BME280;4706;41.844;26.082;2023-02-11T08:12:08;102703.16;;;7.85;38.64
9335;BME280;4706;41.844;26.082;2023-02-11T08:14:33;102700.25;;;7.98;38.22
9335;BME280;4706;41.844;26.082;2023-02-11T08:16:59;102695.06;;;8.09;37.35
9335;BME280;4706;41.844;26.082;2023-02-11T08:19:25;102698.03;;;8.07;37.68
9335;BME280;4706;41.844;26.082;2023-02-11T08:21:54;102695.72;;;8.22;38.32
9335;BME280;4706;41.844;26.082;2023-02-11T08:24:20;102688.69;;;8.26;37.20
9335;BME280;4706;41.844;26.082;2023-02-11T08:26:45;102692.03;;;8.28;37.88
9335;BME280;4706;41.844;26.082;2023-02-11T08:29:12;102683.81;;;8.28;38.05
9335;BME280;4706;41.844;26.082;2023-02-11T08:31:39;102695.81;;;8.46;37.93
9335;BME280;4706;41.844;26.082;2023-02-11T08:34:06;102693.06;;;8.46;38.22
9335;BME280;4706;41.844;26.082;2023-02-11T08:36:34;102695.50;;;8.66;38.17
9335;BME280;4706;41.844;26.082;2023-02-11T08:39:05;102682.16;;;8.81;37.32
9335;BME280;4706;41.844;26.082;2023-02-11T08:41:33;102693.75;;;9.07;37.80
9335;BME280;4706;41.844;26.082;2023-02-11T08:43:59;102690.88;;;9.37;37.27
9335;BME280;4706;41.844;26.082;2023-02-11T08:46:25;102688.91;;;9.61;36.43
9335;BME280;4706;41.844;26.082;2023-02-11T08:48:51;102682.22;;;9.68;36.05
9335;BME280;4706;41.844;26.082;2023-02-11T08:51:25;102681.38;;;9.68;35.01
9335;BME280;4706;41.844;26.082;2023-02-11T08:53:53;102687.78;;;9.73;35.59
9335;BME280;4706;41.844;26.082;2023-02-11T08:56:20;102677.28;;;9.82;35.52
9335;BME280;4706;41.844;26.082;2023-02-11T08:58:46;102674.81;;;9.97;35.04
9335;BME280;4706;41.844;26.082;2023-02-11T09:01:15;102673.28;;;10.18;34.84
9335;BME280;4706;41.844;26.082;2023-02-11T09:03:41;102669.94;;;10.45;34.33
9335;BME280;4706;41.844;26.082;2023-02-11T09:06:08;102664.47;;;10.62;33.46
9335;BME280;4706;41.844;26.082;2023-02-11T09:08:41;102658.09;;;10.78;32.98
9335;BME280;4706;41.844;26.082;2023-02-11T09:11:08;102662.25;;;10.98;32.31
9335;BME280;4706;41.844;26.082;2023-02-11T09:13:34;102653.16;;;10.97;32.63
9335;BME280;4706;41.844;26.082;2023-02-11T09:16:01;102647.50;;;11.04;32.00
9335;BME280;4706;41.844;26.082;2023-02-11T09:18:28;102652.88;;;11.15;31.95
9335;BME280;4706;41.844;26.082;2023-02-11T09:21:04;102647.16;;;11.17;30.85
9335;BME280;4706;41.844;26.082;2023-02-11T09:23:30;102645.34;;;11.28;30.56
9335;BME280;4706;41.844;26.082;2023-02-11T09:26:20;102638.22;;;11.32;30.77
9335;BME280;4706;41.844;26.082;2023-02-11T09:28:44;102607.31;;;11.25;28.89
9335;BME280;4706;41.844;26.082;2023-02-11T09:31:13;102637.22;;;11.38;28.46
9335;BME280;4706;41.844;26.082;2023-02-11T09:33:40;102642.59;;;11.28;29.31
9335;BME280;4706;41.844;26.082;2023-02-11T09:36:14;102637.22;;;11.38;30.52
9335;BME280;4706;41.844;26.082;2023-02-11T09:38:41;102628.44;;;11.63;29.45
9335;BME280;4706;41.844;26.082;2023-02-11T09:43:52;102628.03;;;11.98;29.69
9335;BME280;4706;41.844;26.082;2023-02-11T09:46:19;102628.75;;;12.15;29.48
9335;BME280;4706;41.844;26.082;2023-02-11T09:48:48;102610.91;;;12.23;28.57
9335;BME280;4706;41.844;26.082;2023-02-11T09:54:03;102612.50;;;12.51;28.91
9335;BME280;4706;41.844;26.082;2023-02-11T09:56:29;102592.50;;;12.34;28.70
9335;BME280;4706;41.844;26.082;2023-02-11T09:58:55;102589.91;;;12.54;28.06
9335;BME280;4706;41.844;26.082;2023-02-11T10:04:28;102581.28;;;12.83;26.93
9335;BME280;4706;41.844;26.082;2023-02-11T10:07:36;102565.75;;;12.77;25.82
9335;BME280;4706;41.844;26.082;2023-02-11T10:16:17;102558.88;;;12.79;25.65
9335;BME280;4706;41.844;26.082;2023-02-11T10:19:12;102543.69;;;12.82;26.74
9335;BME280;4706;41.844;26.082;2023-02-11T10:22:02;102545.47;;;13.08;25.97
9335;BME280;4706;41.844;26.082;2023-02-11T10:24:31;102539.25;;;13.28;25.77
9335;BME280;4706;41.844;26.082;2023-02-11T10:26:57;102542.84;;;13.34;25.44
9335;BME280;4706;41.844;26.082;2023-02-11T10:31:55;102519.66;;;13.40;26.01
9335;BME280;4706;41.844;26.082;2023-02-11T10:34:21;102523.81;;;13.48;25.87
9335;BME280;4706;41.844;26.082;2023-02-11T10:36:47;102525.75;;;13.57;25.44
9335;BME280;4706;41.844;26.082;2023-02-11T10:39:16;102503.69;;;13.63;25.23
9335;BME280;4706;41.844;26.082;2023-02-11T10:42:01;102503.13;;;13.66;24.89
9335;BME280;4706;41.844;26.082;2023-02-11T10:44:35;102496.78;;;13.70;25.64
9335;BME280;4706;41.844;26.082;2023-02-11T10:47:12;102495.94;;;13.85;25.27
9335;BME280;4706;41.844;26.082;2023-02-11T10:49:42;102483.50;;;14.03;24.86
9335;BME280;4706;41.844;26.082;2023-02-11T10:57:26;102461.94;;;14.00;24.58
9335;BME280;4706;41.844;26.082;2023-02-11T10:59:58;102460.25;;;14.04;23.97
9335;BME280;4706;41.844;26.082;2023-02-11T11:02:32;102461.34;;;13.67;23.67
9335;BME280;4706;41.844;26.082;2023-02-11T11:05:19;102460.78;;;13.45;24.03
9335;BME280;4706;41.844;26.082;2023-02-11T11:08:05;102456.34;;;13.33;23.88
9335;BME280;4706;41.844;26.082;2023-02-11T11:10:35;102449.19;;;13.43;24.88
9335;BME280;4706;41.844;26.082;2023-02-11T11:13:02;102446.16;;;13.70;23.85
9335;BME280;4706;41.844;26.082;2023-02-11T11:15:30;102439.25;;;13.82;23.93
9335;BME280;4706;41.844;26.082;2023-02-11T11:18:12;102434.25;;;13.79;23.68
9335;BME280;4706;41.844;26.082;2023-02-11T11:20:52;102433.72;;;13.67;24.53
9335;BME280;4706;41.844;26.082;2023-02-11T11:23:21;102424.31;;;13.89;24.27
9335;BME280;4706;41.844;26.082;2023-02-11T11:26:17;102420.09;;;14.17;22.27
9335;BME280;4706;41.844;26.082;2023-02-11T11:29:08;102415.91;;;14.34;22.06
9335;BME280;4706;41.844;26.082;2023-02-11T11:31:58;102416.16;;;14.43;21.79
9335;BME280;4706;41.844;26.082;2023-02-11T11:34:31;102395.09;;;14.57;22.10
9335;BME280;4706;41.844;26.082;2023-02-11T11:36:59;102395.59;;;14.75;22.68
9335;BME280;4706;41.844;26.082;2023-02-11T11:39:30;102394.47;;;14.76;21.48
9335;BME280;4706;41.844;26.082;2023-02-11T11:42:02;102379.75;;;14.80;21.13
9335;BME280;4706;41.844;26.082;2023-02-11T11:50:13;102373.50;;;15.09;21.77
9335;BME280;4706;41.844;26.082;2023-02-11T11:55:24;102355.16;;;15.13;20.13
9335;BME280;4706;41.844;26.082;2023-02-11T11:57:50;102354.38;;;15.07;20.45
9335;BME280;4706;41.844;26.082;2023-02-11T12:00:19;102351.69;;;14.97;19.28
9335;BME280;4706;41.844;26.082;2023-02-11T12:05:42;102349.94;;;14.62;21.63
9335;BME280;4706;41.844;26.082;2023-02-11T12:11:22;102330.19;;;14.74;19.44
9335;BME280;4706;41.844;26.082;2023-02-11T12:19:33;102326.22;;;14.90;18.89
9335;BME280;4706;41.844;26.082;2023-02-11T12:22:11;102323.47;;;14.85;19.18
9335;BME280;4706;41.844;26.082;2023-02-11T12:30:40;102319.88;;;14.85;18.66
9335;BME280;4706;41.844;26.082;2023-02-11T12:36:08;102313.63;;;14.69;18.27
9335;BME280;4706;41.844;26.082;2023-02-11T12:47:30;102297.66;;;14.95;18.18
9335;BME280;4706;41.844;26.082;2023-02-11T12:53:12;102292.13;;;14.95;17.55
9335;BME280;4706;41.844;26.082;2023-02-11T12:55:36;102283.00;;;14.89;18.60
9335;BME280;4706;41.844;26.082;2023-02-11T12:58:11;102279.13;;;14.90;17.45
9335;BME280;4706;41.844;26.082;2023-02-11T13:01:25;102278.25;;;14.95;16.46
9335;BME280;4706;41.844;26.082;2023-02-11T13:03:48;102281.06;;;14.90;16.36
9335;BME280;4706;41.844;26.082;2023-02-11T13:06:38;102273.88;;;14.89;16.76
9335;BME280;4706;41.844;26.082;2023-02-11T13:09:10;102274.78;;;14.79;17.04
9335;BME280;4706;41.844;26.082;2023-02-11T13:11:44;102271.47;;;14.77;17.27
9335;BME280;4706;41.844;26.082;2023-02-11T13:14:37;102274.06;;;14.63;17.65
9335;BME280;4706;41.844;26.082;2023-02-11T13:17:18;102268.22;;;14.65;17.85
9335;BME280;4706;41.844;26.082;2023-02-11T13:19:51;102260.78;;;14.55;17.33
9335;BME280;4706;41.844;26.082;2023-02-11T13:22:25;102274.06;;;14.63;17.25
9335;BME280;4706;41.844;26.082;2023-02-11T13:25:03;102274.06;;;14.63;17.53
9335;BME280;4706;41.844;26.082;2023-02-11T13:27:50;102264.13;;;14.47;16.44
9335;BME280;4706;41.844;26.082;2023-02-11T13:30:28;102258.41;;;14.33;15.73
9335;BME280;4706;41.844;26.082;2023-02-11T13:35:32;102267.56;;;14.33;16.62
9335;BME280;4706;41.844;26.082;2023-02-11T13:38:20;102258.72;;;14.21;16.99
9335;BME280;4706;41.844;26.082;2023-02-11T13:43:29;102259.09;;;14.04;17.68
9335;BME280;4706;41.844;26.082;2023-02-11T13:46:07;102248.63;;;13.91;18.11
9335;BME280;4706;41.844;26.082;2023-02-11T13:51:13;102251.97;;;13.83;17.81
9335;BME280;4706;41.844;26.082;2023-02-11T13:53:53;102246.72;;;13.76;17.39
9335;BME280;4706;41.844;26.082;2023-02-11T13:56:38;102239.34;;;13.46;17.88
9335;BME280;4706;41.844;26.082;2023-02-11T14:02:04;102237.44;;;13.11;17.92
9335;BME280;4706;41.844;26.082;2023-02-11T14:10:51;102232.47;;;12.93;18.22
9335;BME280;4706;41.844;26.082;2023-02-11T14:21:10;102222.97;;;12.22;18.42
9335;BME280;4706;41.844;26.082;2023-02-11T14:23:38;102217.38;;;11.97;17.78
9335;BME280;4706;41.844;26.082;2023-02-11T14:32:09;102211.94;;;11.64;17.66
9335;BME280;4706;41.844;26.082;2023-02-11T14:37:43;102205.25;;;11.50;18.75
9335;BME280;4706;41.844;26.082;2023-02-11T14:40:34;102201.69;;;11.50;18.58
9335;BME280;4706;41.844;26.082;2023-02-11T14:43:11;102198.59;;;11.41;18.29
9335;BME280;4706;41.844;26.082;2023-02-11T14:45:38;102194.72;;;11.37;18.01
9335;BME280;4706;41.844;26.082;2023-02-11T14:48:07;102194.38;;;11.28;18.28
9335;BME280;4706;41.844;26.082;2023-02-11T14:51:02;102197.38;;;11.22;18.45
9335;BME280;4706;41.844;26.082;2023-02-11T14:53:32;102184.13;;;11.13;19.16
9335;BME280;4706;41.844;26.082;2023-02-11T14:55:58;102182.69;;;11.06;19.05
9335;BME280;4706;41.844;26.082;2023-02-11T14:58:28;102185.75;;;11.14;19.02
9335;BME280;4706;41.844;26.082;2023-02-11T15:01:04;102191.00;;;11.16;19.21
9335;BME280;4706;41.844;26.082;2023-02-11T15:03:32;102184.59;;;11.05;19.18
9335;BME280;4706;41.844;26.082;2023-02-11T15:06:00;102178.75;;;10.97;19.22
9335;BME280;4706;41.844;26.082;2023-02-11T15:08:29;102182.03;;;10.93;19.85
9335;BME280;4706;41.844;26.082;2023-02-11T15:10:56;102180.41;;;10.98;19.48
9335;BME280;4706;41.844;26.082;2023-02-11T15:13:24;102182.84;;;10.94;19.92
9335;BME280;4706;41.844;26.082;2023-02-11T15:16:03;102177.50;;;10.77;20.05
9335;BME280;4706;41.844;26.082;2023-02-11T15:18:38;102178.00;;;10.69;19.95
9335;BME280;4706;41.844;26.082;2023-02-11T15:21:05;102183.44;;;10.64;19.80
9335;BME280;4706;41.844;26.082;2023-02-11T15:23:31;102184.50;;;10.58;19.94
9335;BME280;4706;41.844;26.082;2023-02-11T15:25:58;102178.09;;;10.52;19.84
9335;BME280;4706;41.844;26.082;2023-02-11T15:28:30;102174.53;;;10.52;19.76
9335;BME280;4706;41.844;26.082;2023-02-11T15:31:14;102176.66;;;10.44;20.13
9335;BME280;4706;41.844;26.082;2023-02-11T15:33:39;102148.50;;;10.32;20.13
9335;BME280;4706;41.844;26.082;2023-02-11T15:36:05;102178.03;;;10.42;20.23
9335;BME280;4706;41.844;26.082;2023-02-11T15:38:31;102174.88;;;10.33;20.55